sensor_id;sensor_type;location;lat;lon;timestamp;P1;durP1;ratioP1;P2;durP2;ratioP2
55330;SDS011;58851;42.984;20.336;2024-02-28T00:01:24;106.93;;;60.63;;
55330;SDS011;58851;42.984;20.336;2024-02-28T00:03:54;98.47;;;59.58;;
55330;SDS011;58851;42.984;20.336;2024-02-28T00:06:20;104.60;;;59.53;;
55330;SDS011;58851;42.984;20.336;2024-02-28T00:08:45;114.10;;;63.85;;
55330;SDS011;58851;42.984;20.336;2024-02-28T00:11:11;105.13;;;65.75;;
55330;SDS011;58851;42.984;20.336;2024-02-28T00:13:37;110.07;;;65.15;;
55330;SDS011;58851;42.984;20.336;2024-02-28T00:16:03;108.13;;;62.20;;
55330;SDS011;58851;42.984;20.336;2024-02-28T00:18:29;110.18;;;61.95;;
55330;SDS011;58851;42.984;20.336;2024-02-28T00:20:58;98.32;;;56.78;;
55330;SDS011;58851;42.984;20.336;2024-02-28T00:23:24;108.95;;;59.13;;
55330;SDS011;58851;42.984;20.336;2024-02-28T00:25:50;96.88;;;56.92;;
55330;SDS011;58851;42.984;20.336;2024-02-28T00:28:20;105.10;;;61.70;;
55330;SDS011;58851;42.984;20.336;2024-02-28T00:30:49;108.50;;;61.63;;
55330;SDS011;58851;42.984;20.336;2024-02-28T00:33:14;101.43;;;60.20;;
55330;SDS011;58851;42.984;20.336;2024-02-28T00:35:40;53.35;;;29.80;;
55330;SDS011;58851;42.984;20.336;2024-02-28T00:38:06;41.78;;;23.38;;
55330;SDS011;58851;42.984;20.336;2024-02-28T00:40:32;48.42;;;31.20;;
55330;SDS011;58851;42.984;20.336;2024-02-28T00:42:57;49.58;;;30.77;;
55330;SDS011;58851;42.984;20.336;2024-02-28T00:45:23;53.85;;;35.00;;
55330;SDS011;58851;42.984;20.336;2024-02-28T00:47:49;64.50;;;32.78;;
55330;SDS011;58851;42.984;20.336;2024-02-28T00:50:15;46.17;;;28.83;;
55330;SDS011;58851;42.984;20.336;2024-02-28T00:52:40;55.70;;;30.83;;
55330;SDS011;58851;42.984;20.336;2024-02-28T00:55:06;59.38;;;31.90;;
55330;SDS011;58851;42.984;20.336;2024-02-28T00:57:32;63.28;;;37.03;;
55330;SDS011;58851;42.984;20.336;2024-02-28T00:59:59;66.55;;;37.25;;
55330;SDS011;58851;42.984;20.336;2024-02-28T01:02:24;70.15;;;39.53;;
55330;SDS011;58851;42.984;20.336;2024-02-28T01:04:50;94.55;;;51.47;;
55330;SDS011;58851;42.984;20.336;2024-02-28T01:07:16;118.88;;;58.92;;
55330;SDS011;58851;42.984;20.336;2024-02-28T01:09:42;114.13;;;56.75;;
55330;SDS011;58851;42.984;20.336;2024-02-28T01:12:07;111.57;;;59.50;;
55330;SDS011;58851;42.984;20.336;2024-02-28T01:14:33;97.32;;;56.80;;
55330;SDS011;58851;42.984;20.336;2024-02-28T01:16:59;87.40;;;51.22;;
55330;SDS011;58851;42.984;20.336;2024-02-28T01:19:25;81.38;;;50.33;;
55330;SDS011;58851;42.984;20.336;2024-02-28T01:21:51;92.43;;;51.15;;
55330;SDS011;58851;42.984;20.336;2024-02-28T01:24:16;98.60;;;56.58;;
55330;SDS011;58851;42.984;20.336;2024-02-28T01:26:42;143.88;;;73.43;;
55330;SDS011;58851;42.984;20.336;2024-02-28T01:29:08;124.80;;;65.13;;
55330;SDS011;58851;42.984;20.336;2024-02-28T01:31:34;118.38;;;61.78;;
55330;SDS011;58851;42.984;20.336;2024-02-28T01:33:59;119.00;;;63.22;;
55330;SDS011;58851;42.984;20.336;2024-02-28T01:36:25;113.25;;;61.38;;
55330;SDS011;58851;42.984;20.336;2024-02-28T01:38:51;136.20;;;71.65;;
55330;SDS011;58851;42.984;20.336;2024-02-28T01:41:17;138.40;;;69.97;;
55330;SDS011;58851;42.984;20.336;2024-02-28T01:43:43;235.70;;;126.45;;
55330;SDS011;58851;42.984;20.336;2024-02-28T01:46:18;226.10;;;117.55;;
55330;SDS011;58851;42.984;20.336;2024-02-28T01:48:53;279.27;;;146.25;;
55330;SDS011;58851;42.984;20.336;2024-02-28T01:51:21;237.00;;;131.32;;
55330;SDS011;58851;42.984;20.336;2024-02-28T01:53:48;320.17;;;180.63;;
55330;SDS011;58851;42.984;20.336;2024-02-28T01:56:17;204.35;;;118.47;;
55330;SDS011;58851;42.984;20.336;2024-02-28T01:58:45;178.52;;;100.25;;
55330;SDS011;58851;42.984;20.336;2024-02-28T02:01:15;155.95;;;89.10;;
55330;SDS011;58851;42.984;20.336;2024-02-28T02:03:42;136.30;;;78.38;;
55330;SDS011;58851;42.984;20.336;2024-02-28T02:06:08;106.53;;;56.60;;
55330;SDS011;58851;42.984;20.336;2024-02-28T02:08:36;124.18;;;67.05;;
55330;SDS011;58851;42.984;20.336;2024-02-28T02:11:02;132.50;;;70.03;;
55330;SDS011;58851;42.984;20.336;2024-02-28T02:13:28;134.88;;;77.13;;
55330;SDS011;58851;42.984;20.336;2024-02-28T02:15:54;125.60;;;71.43;;
55330;SDS011;58851;42.984;20.336;2024-02-28T02:18:20;119.53;;;69.82;;
55330;SDS011;58851;42.984;20.336;2024-02-28T02:20:46;118.95;;;77.50;;
55330;SDS011;58851;42.984;20.336;2024-02-28T02:23:22;120.35;;;76.60;;
55330;SDS011;58851;42.984;20.336;2024-02-28T02:25:47;170.85;;;101.95;;
55330;SDS011;58851;42.984;20.336;2024-02-28T02:28:14;132.95;;;90.10;;
55330;SDS011;58851;42.984;20.336;2024-02-28T02:30:41;116.78;;;78.28;;
55330;SDS011;58851;42.984;20.336;2024-02-28T02:33:07;103.65;;;62.72;;
55330;SDS011;58851;42.984;20.336;2024-02-28T02:35:33;92.13;;;57.38;;
55330;SDS011;58851;42.984;20.336;2024-02-28T02:38:00;72.40;;;45.63;;
55330;SDS011;58851;42.984;20.336;2024-02-28T02:40:26;63.28;;;38.38;;
55330;SDS011;58851;42.984;20.336;2024-02-28T02:42:52;55.30;;;36.35;;
55330;SDS011;58851;42.984;20.336;2024-02-28T02:45:17;63.13;;;39.72;;
55330;SDS011;58851;42.984;20.336;2024-02-28T02:47:43;52.45;;;33.80;;
55330;SDS011;58851;42.984;20.336;2024-02-28T02:50:09;47.40;;;28.92;;
55330;SDS011;58851;42.984;20.336;2024-02-28T02:52:35;45.00;;;26.60;;
55330;SDS011;58851;42.984;20.336;2024-02-28T02:55:01;34.03;;;21.15;;
55330;SDS011;58851;42.984;20.336;2024-02-28T02:57:27;31.58;;;21.10;;
55330;SDS011;58851;42.984;20.336;2024-02-28T02:59:57;35.65;;;21.23;;
55330;SDS011;58851;42.984;20.336;2024-02-28T03:02:23;40.20;;;23.17;;
55330;SDS011;58851;42.984;20.336;2024-02-28T03:04:48;37.38;;;22.90;;
55330;SDS011;58851;42.984;20.336;2024-02-28T03:07:14;36.15;;;22.88;;
55330;SDS011;58851;42.984;20.336;2024-02-28T03:09:40;36.08;;;24.58;;
55330;SDS011;58851;42.984;20.336;2024-02-28T03:12:06;38.63;;;23.75;;
55330;SDS011;58851;42.984;20.336;2024-02-28T03:14:32;37.80;;;22.38;;
55330;SDS011;58851;42.984;20.336;2024-02-28T03:16:59;31.42;;;17.83;;
55330;SDS011;58851;42.984;20.336;2024-02-28T03:19:25;30.77;;;20.88;;
55330;SDS011;58851;42.984;20.336;2024-02-28T03:21:51;33.17;;;20.30;;
55330;SDS011;58851;42.984;20.336;2024-02-28T03:24:17;41.22;;;23.80;;
55330;SDS011;58851;42.984;20.336;2024-02-28T03:26:42;43.47;;;29.15;;
55330;SDS011;58851;42.984;20.336;2024-02-28T03:29:09;44.40;;;28.08;;
55330;SDS011;58851;42.984;20.336;2024-02-28T03:31:35;46.17;;;28.17;;
55330;SDS011;58851;42.984;20.336;2024-02-28T03:34:01;49.35;;;27.92;;
55330;SDS011;58851;42.984;20.336;2024-02-28T03:36:28;48.67;;;26.75;;
55330;SDS011;58851;42.984;20.336;2024-02-28T03:38:54;42.05;;;24.60;;
55330;SDS011;58851;42.984;20.336;2024-02-28T03:41:20;36.75;;;23.70;;
55330;SDS011;58851;42.984;20.336;2024-02-28T03:43:45;39.55;;;23.75;;
55330;SDS011;58851;42.984;20.336;2024-02-28T03:46:11;41.55;;;23.83;;
55330;SDS011;58851;42.984;20.336;2024-02-28T03:48:37;40.22;;;25.55;;
55330;SDS011;58851;42.984;20.336;2024-02-28T03:51:03;38.85;;;24.83;;
55330;SDS011;58851;42.984;20.336;2024-02-28T03:53:29;52.83;;;28.50;;
55330;SDS011;58851;42.984;20.336;2024-02-28T03:55:55;40.28;;;24.63;;
55330;SDS011;58851;42.984;20.336;2024-02-28T03:58:21;50.17;;;26.23;;
55330;SDS011;58851;42.984;20.336;2024-02-28T04:00:47;49.92;;;29.52;;
55330;SDS011;58851;42.984;20.336;2024-02-28T04:03:12;45.85;;;26.92;;
55330;SDS011;58851;42.984;20.336;2024-02-28T04:05:40;73.38;;;51.75;;
55330;SDS011;58851;42.984;20.336;2024-02-28T04:08:06;77.18;;;59.75;;
55330;SDS011;58851;42.984;20.336;2024-02-28T04:10:32;77.18;;;58.20;;
55330;SDS011;58851;42.984;20.336;2024-02-28T04:12:58;86.90;;;64.50;;
55330;SDS011;58851;42.984;20.336;2024-02-28T04:15:24;118.82;;;78.22;;
55330;SDS011;58851;42.984;20.336;2024-02-28T04:17:51;144.18;;;86.65;;
55330;SDS011;58851;42.984;20.336;2024-02-28T04:20:17;157.20;;;98.32;;
55330;SDS011;58851;42.984;20.336;2024-02-28T04:22:43;148.15;;;92.10;;
55330;SDS011;58851;42.984;20.336;2024-02-28T04:25:09;123.57;;;81.05;;
55330;SDS011;58851;42.984;20.336;2024-02-28T04:27:38;137.50;;;91.47;;
55330;SDS011;58851;42.984;20.336;2024-02-28T04:30:04;310.52;;;187.65;;
55330;SDS011;58851;42.984;20.336;2024-02-28T04:32:31;451.33;;;275.05;;
55330;SDS011;58851;42.984;20.336;2024-02-28T04:34:56;313.02;;;190.25;;
55330;SDS011;58851;42.984;20.336;2024-02-28T04:37:23;249.15;;;150.10;;
55330;SDS011;58851;42.984;20.336;2024-02-28T04:39:49;163.77;;;101.70;;
55330;SDS011;58851;42.984;20.336;2024-02-28T04:42:15;135.75;;;83.45;;
55330;SDS011;58851;42.984;20.336;2024-02-28T04:44:41;78.15;;;49.67;;
55330;SDS011;58851;42.984;20.336;2024-02-28T04:47:07;57.60;;;33.15;;
55330;SDS011;58851;42.984;20.336;2024-02-28T04:49:35;62.75;;;35.08;;
55330;SDS011;58851;42.984;20.336;2024-02-28T04:52:02;68.32;;;40.88;;
55330;SDS011;58851;42.984;20.336;2024-02-28T04:54:28;77.10;;;42.85;;
55330;SDS011;58851;42.984;20.336;2024-02-28T04:56:54;76.22;;;47.60;;
55330;SDS011;58851;42.984;20.336;2024-02-28T04:59:19;73.78;;;45.60;;
55330;SDS011;58851;42.984;20.336;2024-02-28T05:01:45;74.72;;;46.33;;
55330;SDS011;58851;42.984;20.336;2024-02-28T05:04:11;45.92;;;30.33;;
55330;SDS011;58851;42.984;20.336;2024-02-28T05:06:37;30.55;;;20.95;;
55330;SDS011;58851;42.984;20.336;2024-02-28T05:09:03;41.88;;;26.08;;
55330;SDS011;58851;42.984;20.336;2024-02-28T05:11:29;52.10;;;28.15;;
55330;SDS011;58851;42.984;20.336;2024-02-28T05:13:55;64.55;;;35.03;;
55330;SDS011;58851;42.984;20.336;2024-02-28T05:16:21;249.60;;;129.75;;
55330;SDS011;58851;42.984;20.336;2024-02-28T05:18:46;367.85;;;186.15;;
55330;SDS011;58851;42.984;20.336;2024-02-28T05:21:13;536.45;;;287.42;;
55330;SDS011;58851;42.984;20.336;2024-02-28T05:23:41;587.35;;;318.15;;
55330;SDS011;58851;42.984;20.336;2024-02-28T05:26:07;778.55;;;438.63;;
55330;SDS011;58851;42.984;20.336;2024-02-28T05:28:33;732.72;;;422.08;;
55330;SDS011;58851;42.984;20.336;2024-02-28T05:31:03;591.20;;;343.88;;
55330;SDS011;58851;42.984;20.336;2024-02-28T05:33:48;534.83;;;304.98;;
55330;SDS011;58851;42.984;20.336;2024-02-28T05:36:19;479.17;;;260.15;;
55330;SDS011;58851;42.984;20.336;2024-02-28T05:38:45;407.48;;;211.23;;
55330;SDS011;58851;42.984;20.336;2024-02-28T05:41:12;388.98;;;202.43;;
55330;SDS011;58851;42.984;20.336;2024-02-28T05:43:39;249.00;;;129.73;;
55330;SDS011;58851;42.984;20.336;2024-02-28T05:46:06;128.18;;;73.32;;
55330;SDS011;58851;42.984;20.336;2024-02-28T05:48:32;223.15;;;117.88;;
55330;SDS011;58851;42.984;20.336;2024-02-28T05:50:57;130.50;;;74.88;;
55330;SDS011;58851;42.984;20.336;2024-02-28T05:53:25;108.78;;;60.40;;
55330;SDS011;58851;42.984;20.336;2024-02-28T05:55:52;64.88;;;40.00;;
55330;SDS011;58851;42.984;20.336;2024-02-28T05:58:22;56.42;;;34.38;;
55330;SDS011;58851;42.984;20.336;2024-02-28T06:00:48;59.92;;;38.60;;
55330;SDS011;58851;42.984;20.336;2024-02-28T06:03:14;80.70;;;45.67;;
55330;SDS011;58851;42.984;20.336;2024-02-28T06:05:40;103.57;;;58.20;;
55330;SDS011;58851;42.984;20.336;2024-02-28T06:08:06;126.55;;;75.97;;
55330;SDS011;58851;42.984;20.336;2024-02-28T06:10:31;151.13;;;94.10;;
55330;SDS011;58851;42.984;20.336;2024-02-28T06:12:57;176.80;;;111.65;;
55330;SDS011;58851;42.984;20.336;2024-02-28T06:15:24;187.57;;;117.28;;
55330;SDS011;58851;42.984;20.336;2024-02-28T06:17:49;161.02;;;104.05;;
55330;SDS011;58851;42.984;20.336;2024-02-28T06:20:15;160.18;;;100.40;;
55330;SDS011;58851;42.984;20.336;2024-02-28T06:22:41;139.75;;;86.70;;
55330;SDS011;58851;42.984;20.336;2024-02-28T06:25:07;140.52;;;85.18;;
55330;SDS011;58851;42.984;20.336;2024-02-28T06:27:39;135.48;;;86.55;;
55330;SDS011;58851;42.984;20.336;2024-02-28T06:30:05;118.72;;;76.90;;
55330;SDS011;58851;42.984;20.336;2024-02-28T06:32:32;113.18;;;75.15;;
55330;SDS011;58851;42.984;20.336;2024-02-28T06:34:58;108.45;;;75.55;;
55330;SDS011;58851;42.984;20.336;2024-02-28T06:37:23;97.00;;;68.88;;
55330;SDS011;58851;42.984;20.336;2024-02-28T06:39:49;99.85;;;65.75;;
55330;SDS011;58851;42.984;20.336;2024-02-28T06:42:15;94.95;;;63.78;;
55330;SDS011;58851;42.984;20.336;2024-02-28T06:44:41;114.05;;;74.88;;
55330;SDS011;58851;42.984;20.336;2024-02-28T06:47:06;113.90;;;74.75;;
55330;SDS011;58851;42.984;20.336;2024-02-28T06:49:34;105.93;;;71.22;;
55330;SDS011;58851;42.984;20.336;2024-02-28T06:52:00;93.70;;;63.75;;
55330;SDS011;58851;42.984;20.336;2024-02-28T06:54:27;103.50;;;62.67;;
55330;SDS011;58851;42.984;20.336;2024-02-28T06:56:53;142.73;;;89.38;;
55330;SDS011;58851;42.984;20.336;2024-02-28T06:59:20;189.98;;;114.18;;
55330;SDS011;58851;42.984;20.336;2024-02-28T07:01:46;177.20;;;107.90;;
55330;SDS011;58851;42.984;20.336;2024-02-28T07:04:12;123.45;;;75.75;;
55330;SDS011;58851;42.984;20.336;2024-02-28T07:06:38;134.18;;;85.60;;
55330;SDS011;58851;42.984;20.336;2024-02-28T07:09:04;133.82;;;85.20;;
55330;SDS011;58851;42.984;20.336;2024-02-28T07:11:32;135.30;;;87.43;;
55330;SDS011;58851;42.984;20.336;2024-02-28T07:13:58;150.65;;;94.47;;
55330;SDS011;58851;42.984;20.336;2024-02-28T07:16:27;178.63;;;110.70;;
55330;SDS011;58851;42.984;20.336;2024-02-28T07:18:54;188.32;;;121.28;;
55330;SDS011;58851;42.984;20.336;2024-02-28T07:21:19;202.02;;;120.63;;
55330;SDS011;58851;42.984;20.336;2024-02-28T07:23:45;162.23;;;95.97;;
55330;SDS011;58851;42.984;20.336;2024-02-28T07:26:17;140.80;;;88.35;;
55330;SDS011;58851;42.984;20.336;2024-02-28T07:28:43;141.90;;;89.50;;
55330;SDS011;58851;42.984;20.336;2024-02-28T07:31:15;152.50;;;97.43;;
55330;SDS011;58851;42.984;20.336;2024-02-28T07:33:44;154.88;;;99.43;;
55330;SDS011;58851;42.984;20.336;2024-02-28T07:36:10;140.98;;;92.40;;
55330;SDS011;58851;42.984;20.336;2024-02-28T07:38:37;126.70;;;79.70;;
55330;SDS011;58851;42.984;20.336;2024-02-28T07:41:03;117.72;;;73.00;;
55330;SDS011;58851;42.984;20.336;2024-02-28T07:43:29;92.47;;;61.03;;
55330;SDS011;58851;42.984;20.336;2024-02-28T07:45:58;103.30;;;69.00;;
55330;SDS011;58851;42.984;20.336;2024-02-28T07:48:24;118.70;;;76.80;;
55330;SDS011;58851;42.984;20.336;2024-02-28T07:50:50;108.65;;;65.72;;
55330;SDS011;58851;42.984;20.336;2024-02-28T07:53:16;107.75;;;62.63;;
55330;SDS011;58851;42.984;20.336;2024-02-28T07:55:42;102.45;;;60.20;;
55330;SDS011;58851;42.984;20.336;2024-02-28T07:58:08;103.57;;;60.80;;
55330;SDS011;58851;42.984;20.336;2024-02-28T08:00:34;75.93;;;49.38;;
55330;SDS011;58851;42.984;20.336;2024-02-28T08:03:00;78.00;;;47.70;;
55330;SDS011;58851;42.984;20.336;2024-02-28T08:05:27;67.43;;;42.88;;
55330;SDS011;58851;42.984;20.336;2024-02-28T08:07:53;62.70;;;41.45;;
55330;SDS011;58851;42.984;20.336;2024-02-28T08:10:19;63.95;;;43.80;;
55330;SDS011;58851;42.984;20.336;2024-02-28T08:12:45;76.45;;;46.78;;
55330;SDS011;58851;42.984;20.336;2024-02-28T08:15:11;65.28;;;40.95;;
55330;SDS011;58851;42.984;20.336;2024-02-28T08:17:37;68.30;;;42.95;;
55330;SDS011;58851;42.984;20.336;2024-02-28T08:20:03;77.90;;;44.88;;
55330;SDS011;58851;42.984;20.336;2024-02-28T08:22:30;64.97;;;42.97;;
55330;SDS011;58851;42.984;20.336;2024-02-28T08:24:56;74.05;;;41.58;;
55330;SDS011;58851;42.984;20.336;2024-02-28T08:27:22;64.50;;;40.30;;
55330;SDS011;58851;42.984;20.336;2024-02-28T08:29:50;52.67;;;33.33;;
55330;SDS011;58851;42.984;20.336;2024-02-28T08:32:17;55.45;;;34.65;;
55330;SDS011;58851;42.984;20.336;2024-02-28T08:34:43;59.30;;;38.08;;
55330;SDS011;58851;42.984;20.336;2024-02-28T08:37:11;54.58;;;33.58;;
55330;SDS011;58851;42.984;20.336;2024-02-28T08:39:37;46.10;;;30.52;;
55330;SDS011;58851;42.984;20.336;2024-02-28T08:42:03;45.65;;;30.27;;
55330;SDS011;58851;42.984;20.336;2024-02-28T08:44:30;51.97;;;34.28;;
55330;SDS011;58851;42.984;20.336;2024-02-28T08:46:56;41.53;;;26.70;;
55330;SDS011;58851;42.984;20.336;2024-02-28T08:49:21;37.90;;;23.05;;
55330;SDS011;58851;42.984;20.336;2024-02-28T08:51:47;42.92;;;24.88;;
55330;SDS011;58851;42.984;20.336;2024-02-28T08:54:13;42.25;;;25.23;;
55330;SDS011;58851;42.984;20.336;2024-02-28T08:56:39;43.45;;;26.33;;
55330;SDS011;58851;42.984;20.336;2024-02-28T08:59:05;37.92;;;21.88;;
55330;SDS011;58851;42.984;20.336;2024-02-28T09:01:31;32.65;;;21.13;;
55330;SDS011;58851;42.984;20.336;2024-02-28T09:03:59;36.58;;;19.05;;
55330;SDS011;58851;42.984;20.336;2024-02-28T09:06:25;40.03;;;21.63;;
55330;SDS011;58851;42.984;20.336;2024-02-28T09:08:52;48.25;;;26.90;;
55330;SDS011;58851;42.984;20.336;2024-02-28T09:11:18;15.45;;;9.00;;
55330;SDS011;58851;42.984;20.336;2024-02-28T09:13:44;26.20;;;15.32;;
55330;SDS011;58851;42.984;20.336;2024-02-28T09:16:10;22.42;;;12.20;;
55330;SDS011;58851;42.984;20.336;2024-02-28T09:18:35;20.50;;;11.63;;
55330;SDS011;58851;42.984;20.336;2024-02-28T09:21:01;22.20;;;13.05;;
55330;SDS011;58851;42.984;20.336;2024-02-28T09:23:27;23.50;;;12.65;;
55330;SDS011;58851;42.984;20.336;2024-02-28T09:25:53;20.73;;;12.40;;
55330;SDS011;58851;42.984;20.336;2024-02-28T09:28:21;15.73;;;6.72;;
55330;SDS011;58851;42.984;20.336;2024-02-28T09:30:47;13.48;;;8.45;;
55330;SDS011;58851;42.984;20.336;2024-02-28T09:33:16;14.93;;;7.95;;
55330;SDS011;58851;42.984;20.336;2024-02-28T09:35:45;18.50;;;9.43;;
55330;SDS011;58851;42.984;20.336;2024-02-28T09:38:11;28.45;;;12.10;;
55330;SDS011;58851;42.984;20.336;2024-02-28T09:40:37;24.55;;;10.80;;
55330;SDS011;58851;42.984;20.336;2024-02-28T09:43:03;26.10;;;12.88;;
55330;SDS011;58851;42.984;20.336;2024-02-28T09:45:30;25.05;;;15.80;;
55330;SDS011;58851;42.984;20.336;2024-02-28T09:48:00;24.70;;;15.50;;
55330;SDS011;58851;42.984;20.336;2024-02-28T09:50:26;20.67;;;14.50;;
55330;SDS011;58851;42.984;20.336;2024-02-28T09:52:53;13.00;;;6.75;;
55330;SDS011;58851;42.984;20.336;2024-02-28T09:55:19;7.68;;;4.47;;
55330;SDS011;58851;42.984;20.336;2024-02-28T09:57:47;11.57;;;4.60;;
55330;SDS011;58851;42.984;20.336;2024-02-28T10:00:14;12.55;;;5.22;;
55330;SDS011;58851;42.984;20.336;2024-02-28T10:02:45;14.68;;;6.32;;
55330;SDS011;58851;42.984;20.336;2024-02-28T10:05:14;14.25;;;6.43;;
55330;SDS011;58851;42.984;20.336;2024-02-28T10:07:41;15.95;;;4.70;;
55330;SDS011;58851;42.984;20.336;2024-02-28T10:10:07;7.55;;;4.15;;
55330;SDS011;58851;42.984;20.336;2024-02-28T10:12:33;12.88;;;6.00;;
55330;SDS011;58851;42.984;20.336;2024-02-28T10:15:02;20.30;;;6.43;;
55330;SDS011;58851;42.984;20.336;2024-02-28T10:17:28;20.35;;;7.25;;
55330;SDS011;58851;42.984;20.336;2024-02-28T10:19:54;8.13;;;3.80;;
55330;SDS011;58851;42.984;20.336;2024-02-28T10:22:22;11.90;;;6.22;;
55330;SDS011;58851;42.984;20.336;2024-02-28T10:24:56;10.18;;;5.85;;
55330;SDS011;58851;42.984;20.336;2024-02-28T10:27:25;12.27;;;6.05;;
55330;SDS011;58851;42.984;20.336;2024-02-28T10:29:51;10.57;;;5.57;;
55330;SDS011;58851;42.984;20.336;2024-02-28T10:32:16;14.90;;;6.35;;
55330;SDS011;58851;42.984;20.336;2024-02-28T10:34:42;10.18;;;6.30;;
55330;SDS011;58851;42.984;20.336;2024-02-28T10:37:09;19.80;;;7.10;;
55330;SDS011;58851;42.984;20.336;2024-02-28T10:39:36;12.38;;;3.92;;
55330;SDS011;58851;42.984;20.336;2024-02-28T10:42:03;12.02;;;4.32;;
55330;SDS011;58851;42.984;20.336;2024-02-28T10:44:29;15.45;;;7.63;;
55330;SDS011;58851;42.984;20.336;2024-02-28T10:46:56;21.90;;;8.68;;
55330;SDS011;58851;42.984;20.336;2024-02-28T10:49:24;25.98;;;13.02;;
55330;SDS011;58851;42.984;20.336;2024-02-28T10:51:50;28.35;;;12.18;;
55330;SDS011;58851;42.984;20.336;2024-02-28T10:54:19;27.27;;;15.82;;
55330;SDS011;58851;42.984;20.336;2024-02-28T10:56:46;27.27;;;12.65;;
55330;SDS011;58851;42.984;20.336;2024-02-28T10:59:14;31.98;;;11.35;;
55330;SDS011;58851;42.984;20.336;2024-02-28T11:01:40;14.65;;;6.25;;
55330;SDS011;58851;42.984;20.336;2024-02-28T11:04:10;17.40;;;8.43;;
55330;SDS011;58851;42.984;20.336;2024-02-28T11:06:47;24.35;;;9.48;;
55330;SDS011;58851;42.984;20.336;2024-02-28T11:09:23;21.63;;;12.63;;
55330;SDS011;58851;42.984;20.336;2024-02-28T11:11:53;22.38;;;11.95;;
55330;SDS011;58851;42.984;20.336;2024-02-28T11:14:20;32.00;;;17.13;;
55330;SDS011;58851;42.984;20.336;2024-02-28T11:16:47;19.15;;;12.00;;
55330;SDS011;58851;42.984;20.336;2024-02-28T11:19:24;26.40;;;15.15;;
55330;SDS011;58851;42.984;20.336;2024-02-28T11:21:56;35.28;;;17.05;;
55330;SDS011;58851;42.984;20.336;2024-02-28T11:24:24;26.65;;;13.90;;
55330;SDS011;58851;42.984;20.336;2024-02-28T11:26:57;31.38;;;15.05;;
55330;SDS011;58851;42.984;20.336;2024-02-28T11:29:27;26.33;;;14.38;;
55330;SDS011;58851;42.984;20.336;2024-02-28T11:31:54;18.13;;;11.20;;
55330;SDS011;58851;42.984;20.336;2024-02-28T11:34:20;30.95;;;16.55;;
55330;SDS011;58851;42.984;20.336;2024-02-28T11:36:50;20.67;;;14.23;;
55330;SDS011;58851;42.984;20.336;2024-02-28T11:39:16;21.00;;;8.50;;
55330;SDS011;58851;42.984;20.336;2024-02-28T11:41:45;17.95;;;8.77;;
55330;SDS011;58851;42.984;20.336;2024-02-28T11:44:17;21.02;;;11.80;;
55330;SDS011;58851;42.984;20.336;2024-02-28T11:46:44;20.20;;;11.48;;
55330;SDS011;58851;42.984;20.336;2024-02-28T11:49:11;17.48;;;10.70;;
55330;SDS011;58851;42.984;20.336;2024-02-28T11:51:39;25.58;;;11.73;;
55330;SDS011;58851;42.984;20.336;2024-02-28T11:54:09;21.08;;;11.55;;
55330;SDS011;58851;42.984;20.336;2024-02-28T11:56:38;17.40;;;9.32;;
55330;SDS011;58851;42.984;20.336;2024-02-28T11:59:04;15.32;;;9.27;;
55330;SDS011;58851;42.984;20.336;2024-02-28T12:01:37;21.67;;;9.40;;
55330;SDS011;58851;42.984;20.336;2024-02-28T12:04:04;16.83;;;9.55;;
55330;SDS011;58851;42.984;20.336;2024-02-28T12:06:32;17.35;;;9.38;;
55330;SDS011;58851;42.984;20.336;2024-02-28T12:08:59;15.57;;;9.68;;
55330;SDS011;58851;42.984;20.336;2024-02-28T12:11:25;24.17;;;11.20;;
55330;SDS011;58851;42.984;20.336;2024-02-28T12:13:53;28.15;;;11.65;;
55330;SDS011;58851;42.984;20.336;2024-02-28T12:16:26;18.80;;;9.32;;
55330;SDS011;58851;42.984;20.336;2024-02-28T12:18:52;23.08;;;10.10;;
55330;SDS011;58851;42.984;20.336;2024-02-28T12:21:19;25.15;;;9.57;;
55330;SDS011;58851;42.984;20.336;2024-02-28T12:23:46;25.42;;;10.13;;
55330;SDS011;58851;42.984;20.336;2024-02-28T12:26:13;22.85;;;9.98;;
55330;SDS011;58851;42.984;20.336;2024-02-28T12:28:39;20.63;;;9.73;;
55330;SDS011;58851;42.984;20.336;2024-02-28T12:31:05;20.58;;;9.45;;
55330;SDS011;58851;42.984;20.336;2024-02-28T12:33:34;21.35;;;9.35;;
55330;SDS011;58851;42.984;20.336;2024-02-28T12:36:00;24.90;;;9.57;;
55330;SDS011;58851;42.984;20.336;2024-02-28T12:38:28;22.95;;;10.90;;
55330;SDS011;58851;42.984;20.336;2024-02-28T12:40:54;20.98;;;9.32;;
55330;SDS011;58851;42.984;20.336;2024-02-28T12:43:20;17.60;;;8.98;;
55330;SDS011;58851;42.984;20.336;2024-02-28T12:45:46;19.33;;;8.40;;
55330;SDS011;58851;42.984;20.336;2024-02-28T12:48:12;20.48;;;11.27;;
55330;SDS011;58851;42.984;20.336;2024-02-28T12:50:37;22.15;;;13.63;;
55330;SDS011;58851;42.984;20.336;2024-02-28T12:53:03;22.70;;;11.20;;
55330;SDS011;58851;42.984;20.336;2024-02-28T12:55:30;19.38;;;8.93;;
55330;SDS011;58851;42.984;20.336;2024-02-28T12:57:56;25.50;;;14.10;;
55330;SDS011;58851;42.984;20.336;2024-02-28T13:00:24;20.45;;;8.35;;
55330;SDS011;58851;42.984;20.336;2024-02-28T13:02:50;17.13;;;9.98;;
55330;SDS011;58851;42.984;20.336;2024-02-28T13:05:17;23.50;;;11.88;;
55330;SDS011;58851;42.984;20.336;2024-02-28T13:07:43;21.95;;;12.15;;
55330;SDS011;58851;42.984;20.336;2024-02-28T13:10:09;21.83;;;14.05;;
55330;SDS011;58851;42.984;20.336;2024-02-28T13:12:35;23.70;;;14.38;;
55330;SDS011;58851;42.984;20.336;2024-02-28T13:15:01;22.42;;;12.35;;
55330;SDS011;58851;42.984;20.336;2024-02-28T13:17:28;28.05;;;16.42;;
55330;SDS011;58851;42.984;20.336;2024-02-28T13:19:53;48.53;;;28.52;;
55330;SDS011;58851;42.984;20.336;2024-02-28T13:22:19;39.15;;;21.52;;
55330;SDS011;58851;42.984;20.336;2024-02-28T13:24:45;30.48;;;19.08;;
55330;SDS011;58851;42.984;20.336;2024-02-28T13:27:11;37.63;;;22.73;;
55330;SDS011;58851;42.984;20.336;2024-02-28T13:29:36;26.20;;;15.23;;
55330;SDS011;58851;42.984;20.336;2024-02-28T13:32:02;28.83;;;13.98;;
55330;SDS011;58851;42.984;20.336;2024-02-28T13:34:28;17.67;;;10.25;;
55330;SDS011;58851;42.984;20.336;2024-02-28T13:36:55;21.60;;;13.77;;
55330;SDS011;58851;42.984;20.336;2024-02-28T13:39:21;18.83;;;10.57;;
55330;SDS011;58851;42.984;20.336;2024-02-28T13:41:48;27.27;;;13.25;;
55330;SDS011;58851;42.984;20.336;2024-02-28T13:44:17;24.38;;;12.82;;
55330;SDS011;58851;42.984;20.336;2024-02-28T13:46:44;30.60;;;15.82;;
55330;SDS011;58851;42.984;20.336;2024-02-28T13:49:10;21.00;;;12.52;;
55330;SDS011;58851;42.984;20.336;2024-02-28T13:51:37;27.02;;;12.68;;
55330;SDS011;58851;42.984;20.336;2024-02-28T13:54:03;26.05;;;11.65;;
55330;SDS011;58851;42.984;20.336;2024-02-28T13:56:29;20.17;;;10.18;;
55330;SDS011;58851;42.984;20.336;2024-02-28T13:58:56;23.88;;;11.82;;
55330;SDS011;58851;42.984;20.336;2024-02-28T14:01:22;21.33;;;12.45;;
55330;SDS011;58851;42.984;20.336;2024-02-28T14:03:48;26.88;;;14.32;;